createdAt,value
2024-01-24T00:00:02.872Z,101546.50
2024-01-24T00:00:16.531Z,101547.34
2024-01-24T00:00:50.104Z,101543.75
2024-01-24T00:01:23.017Z,101543.75
2024-01-24T00:01:37.400Z,101544.63
2024-01-24T00:01:50.334Z,101549.94
2024-01-24T00:02:03.246Z,101545.47
2024-01-24T00:02:16.104Z,101543.75
2024-01-24T00:02:28.963Z,101545.47
2024-01-24T00:02:41.922Z,101544.53
2024-01-24T00:02:54.814Z,101553.44
2024-01-24T00:03:07.809Z,101549.00
2024-01-24T00:03:20.987Z,101550.78
2024-01-24T00:03:35.342Z,101550.78
2024-01-24T00:03:49.768Z,101541.97
2024-01-24T00:04:03.102Z,101550.78
2024-01-24T00:04:16.082Z,101548.13
2024-01-24T00:04:29.367Z,101543.69
2024-01-24T00:04:42.482Z,101552.50
2024-01-24T00:04:55.320Z,101540.19
2024-01-24T00:05:09.129Z,101544.63
2024-01-24T00:05:22.060Z,101542.81
2024-01-24T00:05:35.923Z,101537.53
2024-01-24T00:05:48.877Z,101539.31
2024-01-24T00:06:01.913Z,101541.88
2024-01-24T00:06:14.932Z,101540.19
2024-01-24T00:06:28.141Z,101528.72
2024-01-24T00:06:41.051Z,101536.56
2024-01-24T00:06:54.061Z,101539.22
2024-01-24T00:07:07.318Z,101533.91
2024-01-24T00:07:20.170Z,101532.16
2024-01-24T00:07:32.985Z,101535.66
2024-01-24T00:07:45.847Z,101531.25
2024-01-24T00:07:59.751Z,101525.94
2024-01-24T00:08:12.936Z,101528.59
2024-01-24T00:08:25.855Z,101531.25
2024-01-24T00:08:38.954Z,101536.56
2024-01-24T00:08:52.280Z,101533.00
2024-01-24T00:09:05.881Z,101533.91
2024-01-24T00:09:18.867Z,101531.25
2024-01-24T00:09:32.708Z,101533.00
2024-01-24T00:09:45.749Z,101533.00
2024-01-24T00:09:58.615Z,101538.31
2024-01-24T00:10:13.539Z,101536.50
2024-01-24T00:10:26.426Z,101538.22
2024-01-24T00:10:39.712Z,101533.00
2024-01-24T00:10:52.876Z,101537.38
2024-01-24T00:11:05.981Z,101540.00
2024-01-24T00:11:19.101Z,101535.56
2024-01-24T00:11:32.118Z,101530.25
2024-01-24T00:11:44.973Z,101531.13
2024-01-24T00:11:58.159Z,101531.13
2024-01-24T00:12:12.209Z,101533.78
2024-01-24T00:12:25.352Z,101533.78
2024-01-24T00:12:38.363Z,101525.81
2024-01-24T00:12:51.678Z,101531.13
2024-01-24T00:13:05.088Z,101525.81
2024-01-24T00:13:18.041Z,101528.47
2024-01-24T00:13:31.018Z,101528.47
2024-01-24T00:13:43.968Z,101530.19
2024-01-24T00:13:57.887Z,101521.38
2024-01-24T00:14:11.864Z,101516.91
2024-01-24T00:14:24.772Z,101522.28
2024-01-24T00:14:37.926Z,101517.88
2024-01-24T00:14:50.853Z,101519.63
2024-01-24T00:15:04.030Z,101524.09
2024-01-24T00:15:16.984Z,101519.63
2024-01-24T00:15:30.220Z,101514.31
2024-01-24T00:15:44.184Z,101516.97
2024-01-24T00:15:57.111Z,101516.97
2024-01-24T00:16:10.681Z,101513.47
2024-01-24T00:16:23.956Z,101516.97
2024-01-24T00:16:36.918Z,101516.13
2024-01-24T00:16:49.801Z,101507.31
2024-01-24T00:17:03.737Z,101513.47
2024-01-24T00:17:16.782Z,101517.94
2024-01-24T00:17:31.102Z,101517.94
2024-01-24T00:17:44.076Z,101511.75
2024-01-24T00:17:57.034Z,101515.28
2024-01-24T00:18:10.338Z,101511.75
2024-01-24T00:18:23.420Z,101510.91
2024-01-24T00:18:37.801Z,101512.69
2024-01-24T00:18:51.003Z,101508.25
2024-01-24T00:19:04.172Z,101509.09
2024-01-24T00:19:17.284Z,101508.25
2024-01-24T00:19:30.452Z,101507.38
2024-01-24T00:19:44.561Z,101508.25
2024-01-24T00:19:57.456Z,101510.03
2024-01-24T00:20:13.912Z,101504.72
2024-01-24T00:20:26.996Z,101503.00
2024-01-24T00:20:40.025Z,101506.53
2024-01-24T00:20:54.447Z,101508.31
2024-01-24T00:21:07.612Z,101508.31
2024-01-24T00:21:20.688Z,101506.59
2024-01-24T00:21:34.588Z,101506.59
2024-01-24T00:21:47.505Z,101500.41
2024-01-24T00:22:00.477Z,101500.41
2024-01-24T00:22:15.549Z,101501.28
2024-01-24T00:22:29.364Z,101496.91
2024-01-24T00:22:42.318Z,101501.28
2024-01-24T00:22:55.206Z,101491.59
2024-01-24T00:23:08.067Z,101494.25
2024-01-24T00:23:20.920Z,101494.25
2024-01-24T00:23:34.825Z,101499.56
2024-01-24T00:23:48.391Z,101486.31
2024-01-24T00:24:01.221Z,101484.56
2024-01-24T00:24:14.099Z,101493.41
2024-01-24T00:24:27.394Z,101491.66
2024-01-24T00:24:40.324Z,101486.38
2024-01-24T00:24:53.295Z,101486.38
2024-01-24T00:25:06.456Z,101496.13
2024-01-24T00:25:20.352Z,101483.78
2024-01-24T00:25:33.387Z,101490.88
2024-01-24T00:25:46.271Z,101482.91
2024-01-24T00:25:59.143Z,101485.56
2024-01-24T00:26:12.168Z,101494.38
2024-01-24T00:26:25.050Z,101488.22
2024-01-24T00:26:39.169Z,101485.56
2024-01-24T00:26:52.064Z,101489.97
2024-01-24T00:27:06.524Z,101482.06
2024-01-24T00:27:20.630Z,101487.38
2024-01-24T00:27:33.661Z,101484.72
2024-01-24T00:27:46.807Z,101484.72
2024-01-24T00:27:59.743Z,101476.75
2024-01-24T00:28:16.461Z,101480.28
2024-01-24T00:28:31.020Z,101478.56
2024-01-24T00:28:45.109Z,101474.16
2024-01-24T00:28:59.007Z,101474.16
2024-01-24T00:29:12.463Z,101473.31
2024-01-24T00:29:25.341Z,101465.41
2024-01-24T00:29:38.165Z,101472.47
2024-01-24T00:29:51.029Z,101465.41
2024-01-24T00:30:05.282Z,101453.94
2024-01-24T00:30:18.364Z,101459.25
2024-01-24T00:30:31.405Z,101464.56
2024-01-24T00:30:46.038Z,101455.75
2024-01-24T00:30:59.004Z,101461.97
2024-01-24T00:31:14.477Z,101457.56
2024-01-24T00:31:27.302Z,101462.88
2024-01-24T00:31:40.523Z,101451.38
2024-01-24T00:31:56.773Z,101452.25
2024-01-24T00:32:09.697Z,101450.50
2024-01-24T00:32:23.991Z,101455.81
2024-01-24T00:32:37.086Z,101447.84
2024-01-24T00:32:49.995Z,101445.19
2024-01-24T00:33:05.896Z,101450.50
2024-01-24T00:33:19.206Z,101446.06
2024-01-24T00:33:32.302Z,101447.00
2024-01-24T00:33:46.855Z,101447.00
2024-01-24T00:34:00.141Z,101447.84
2024-01-24T00:34:14.132Z,101443.50
2024-01-24T00:34:27.093Z,101448.81
2024-01-24T00:34:41.098Z,101443.50
2024-01-24T00:34:54.103Z,101438.25
2024-01-24T00:35:07.486Z,101444.34
2024-01-24T00:35:20.703Z,101440.06
2024-01-24T00:35:33.544Z,101438.19
2024-01-24T00:35:47.818Z,101446.22
2024-01-24T00:36:00.699Z,101440.84
2024-01-24T00:36:13.632Z,101439.91
2024-01-24T00:36:27.187Z,101439.03
2024-01-24T00:36:40.432Z,101440.84
2024-01-24T00:36:53.400Z,101438.19
2024-01-24T00:37:06.284Z,101441.63
2024-01-24T00:37:19.152Z,101439.03
2024-01-24T00:37:32.376Z,101439.91
2024-01-24T00:37:46.351Z,101431.94
2024-01-24T00:37:59.317Z,101436.38
2024-01-24T00:38:12.245Z,101433.75
2024-01-24T00:38:25.169Z,101431.94
2024-01-24T00:38:37.992Z,101431.94
2024-01-24T00:38:51.209Z,101428.44
2024-01-24T00:39:04.627Z,101432.88
2024-01-24T00:39:18.356Z,101435.53
2024-01-24T00:39:32.242Z,101431.16
2024-01-24T00:39:48.054Z,101430.22
2024-01-24T00:40:01.104Z,101428.44
2024-01-24T00:40:14.208Z,101425.84
2024-01-24T00:40:27.603Z,101427.56
2024-01-24T00:40:40.503Z,101430.22
2024-01-24T00:40:53.398Z,101432.88
2024-01-24T00:41:06.272Z,101439.03
2024-01-24T00:41:20.129Z,101428.44
2024-01-24T00:41:32.996Z,101431.09
2024-01-24T00:41:48.448Z,101428.44
2024-01-24T00:42:01.891Z,101430.22
2024-01-24T00:42:14.834Z,101427.56
2024-01-24T00:42:28.479Z,101421.38
2024-01-24T00:42:44.275Z,101427.63
2024-01-24T00:42:58.342Z,101427.63
2024-01-24T00:43:11.374Z,101424.91
2024-01-24T00:43:24.550Z,101420.53
2024-01-24T00:43:37.482Z,101422.28
2024-01-24T00:43:50.385Z,101418.72
2024-01-24T00:44:03.385Z,101417.03
2024-01-24T00:44:16.331Z,101424.13
2024-01-24T00:44:29.543Z,101417.03
2024-01-24T00:44:44.722Z,101416.00
2024-01-24T00:44:57.580Z,101414.31
2024-01-24T00:45:12.828Z,101415.22
2024-01-24T00:45:26.882Z,101418.81
2024-01-24T00:45:39.927Z,101413.53
2024-01-24T00:45:52.866Z,101408.28
2024-01-24T00:46:06.337Z,101418.97
2024-01-24T00:46:19.646Z,101413.66
2024-01-24T00:46:32.546Z,101411.00
2024-01-24T00:46:45.381Z,101406.63
2024-01-24T00:46:59.348Z,101411.94
2024-01-24T00:47:12.289Z,101404.91
2024-01-24T00:47:25.245Z,101415.53
2024-01-24T00:47:38.165Z,101406.72
2024-01-24T00:47:51.128Z,101408.50
2024-01-24T00:48:04.769Z,101408.50
2024-01-24T00:48:18.247Z,101414.72
2024-01-24T00:48:31.186Z,101402.41
2024-01-24T00:48:44.252Z,101406.88
2024-01-24T00:48:59.623Z,101397.19
2024-01-24T00:49:14.034Z,101394.53
2024-01-24T00:49:27.771Z,101399.81
2024-01-24T00:49:40.814Z,101403.38
2024-01-24T00:49:53.980Z,101401.63
2024-01-24T00:50:08.198Z,101396.31
2024-01-24T00:50:21.088Z,101405.22
2024-01-24T00:50:35.891Z,101405.22
2024-01-24T00:50:48.763Z,101398.13
2024-01-24T00:51:02.641Z,101396.38
2024-01-24T00:51:15.816Z,101398.19
2024-01-24T00:51:28.725Z,101396.47
2024-01-24T00:51:41.657Z,101396.47
2024-01-24T00:51:54.530Z,101403.56
2024-01-24T00:52:07.380Z,101405.28
2024-01-24T00:52:21.275Z,101399.13
2024-01-24T00:52:34.716Z,101395.69
2024-01-24T00:52:53.081Z,101398.34
2024-01-24T00:53:07.649Z,101389.44
2024-01-24T00:53:23.653Z,101400.06
2024-01-24T00:53:38.995Z,101396.56
2024-01-24T00:53:53.221Z,101391.25
2024-01-24T00:54:06.701Z,101397.47
2024-01-24T00:54:19.637Z,101395.69
2024-01-24T00:54:32.546Z,101392.16
2024-01-24T00:54:45.489Z,101390.47
2024-01-24T00:54:58.402Z,101396.63
2024-01-24T00:55:11.712Z,101391.31
2024-01-24T00:55:28.319Z,101396.63
2024-01-24T00:55:41.375Z,101398.41
2024-01-24T00:55:54.219Z,101391.31
2024-01-24T00:56:07.435Z,101391.31
2024-01-24T00:56:20.331Z,101394.06
2024-01-24T00:56:33.230Z,101394.91
2024-01-24T00:56:46.512Z,101396.72
2024-01-24T00:56:59.469Z,101394.13
2024-01-24T00:57:12.642Z,101391.47
2024-01-24T00:57:25.575Z,101398.47
2024-01-24T00:57:38.483Z,101387.00
2024-01-24T00:57:52.478Z,101382.56
2024-01-24T00:58:05.343Z,101392.31
2024-01-24T00:58:18.793Z,101385.22
2024-01-24T00:58:31.623Z,101381.72
2024-01-24T00:58:44.618Z,101382.56
2024-01-24T00:58:57.454Z,101381.72
2024-01-24T00:59:10.413Z,101377.25
2024-01-24T00:59:23.790Z,101371.94
2024-01-24T00:59:37.727Z,101374.59
2024-01-24T00:59:50.591Z,101379.91
2024-01-24T01:00:05.371Z,101368.38
2024-01-24T01:00:18.895Z,101371.03
2024-01-24T01:00:31.880Z,101377.25
2024-01-24T01:00:44.881Z,101368.38
2024-01-24T01:00:57.950Z,101374.53
2024-01-24T01:01:11.612Z,101373.69
2024-01-24T01:01:24.606Z,101372.72
2024-01-24T01:01:38.498Z,101367.44
2024-01-24T01:01:51.736Z,101370.09
2024-01-24T01:02:04.912Z,101366.50
2024-01-24T01:02:18.223Z,101370.09
2024-01-24T01:02:31.064Z,101367.38
2024-01-24T01:02:44.451Z,101367.38
2024-01-24T01:02:57.344Z,101370.94
2024-01-24T01:03:10.507Z,101375.31
2024-01-24T01:03:24.560Z,101366.50
2024-01-24T01:03:38.338Z,101362.97
2024-01-24T01:03:51.635Z,101361.22
2024-01-24T01:04:06.096Z,101359.47
2024-01-24T01:04:19.261Z,101364.72
2024-01-24T01:04:32.248Z,101358.56
2024-01-24T01:04:45.150Z,101361.22
2024-01-24T01:04:58.062Z,101355.91
2024-01-24T01:05:12.163Z,101355.91
2024-01-24T01:05:26.232Z,101353.25
2024-01-24T01:05:39.321Z,101353.25
2024-01-24T01:05:52.287Z,101351.44
2024-01-24T01:06:05.921Z,101355.91
2024-01-24T01:06:18.812Z,101347.94
2024-01-24T01:06:31.718Z,101351.50
2024-01-24T01:06:44.980Z,101354.16
2024-01-24T01:06:58.032Z,101350.66
2024-01-24T01:07:11.196Z,101344.41
2024-01-24T01:07:25.394Z,101343.56
2024-01-24T01:07:38.297Z,101349.72
2024-01-24T01:07:51.225Z,101343.56
2024-01-24T01:08:04.914Z,101348.00
2024-01-24T01:08:18.088Z,101349.81
2024-01-24T01:08:30.932Z,101354.16
2024-01-24T01:08:44.153Z,101354.16
2024-01-24T01:08:57.039Z,101350.66
2024-01-24T01:09:10.009Z,101354.16
2024-01-24T01:09:24.045Z,101352.47
2024-01-24T01:09:37.360Z,101344.41
2024-01-24T01:09:50.309Z,101351.50
2024-01-24T01:10:04.186Z,101346.22
2024-01-24T01:10:17.245Z,101348.00
2024-01-24T01:10:30.240Z,101348.84
2024-01-24T01:10:43.569Z,101351.50
2024-01-24T01:10:57.416Z,101355.97
2024-01-24T01:11:10.313Z,101354.16
2024-01-24T01:11:23.258Z,101350.66
2024-01-24T01:11:36.108Z,101354.16
2024-01-24T01:11:49.005Z,101353.31
2024-01-24T01:12:01.955Z,101350.66
2024-01-24T01:12:14.918Z,101350.66
2024-01-24T01:12:27.914Z,101358.63
2024-01-24T01:12:40.837Z,101358.63
2024-01-24T01:12:55.153Z,101359.47
2024-01-24T01:13:08.226Z,101355.97
2024-01-24T01:13:21.136Z,101362.13
2024-01-24T01:13:34.419Z,101358.63
2024-01-24T01:13:47.394Z,101354.16
2024-01-24T01:14:00.593Z,101362.13
2024-01-24T01:14:13.572Z,101355.97
2024-01-24T01:14:26.472Z,101355.00
2024-01-24T01:14:39.327Z,101357.66
2024-01-24T01:14:52.279Z,101360.31
2024-01-24T01:15:07.364Z,101358.56
2024-01-24T01:15:20.339Z,101351.50
2024-01-24T01:15:33.355Z,101356.81
2024-01-24T01:15:46.361Z,101355.91
2024-01-24T01:15:59.336Z,101361.22
2024-01-24T01:16:12.198Z,101355.91
2024-01-24T01:16:25.065Z,101358.47
2024-01-24T01:16:37.958Z,101349.66
2024-01-24T01:16:51.003Z,101355.81
2024-01-24T01:17:04.144Z,101352.31
2024-01-24T01:17:18.010Z,101349.66
2024-01-24T01:17:31.198Z,101354.94
2024-01-24T01:17:44.138Z,101352.31
2024-01-24T01:17:57.020Z,101352.31
2024-01-24T01:18:10.073Z,101352.31
2024-01-24T01:18:23.089Z,101347.00
2024-01-24T01:18:36.422Z,101353.16
2024-01-24T01:18:50.359Z,101349.66
2024-01-24T01:19:03.387Z,101347.94
2024-01-24T01:19:17.987Z,101347.00
2024-01-24T01:19:30.920Z,101342.53
2024-01-24T01:19:43.783Z,101343.41
2024-01-24T01:19:56.729Z,101340.78
2024-01-24T01:20:10.772Z,101343.41
2024-01-24T01:20:23.679Z,101344.28
2024-01-24T01:20:36.577Z,101344.28
2024-01-24T01:20:49.721Z,101345.13
2024-01-24T01:21:03.608Z,101338.13
2024-01-24T01:21:16.545Z,101339.81
2024-01-24T01:21:29.536Z,101324.84
2024-01-24T01:21:42.622Z,101327.50
2024-01-24T01:21:55.594Z,101328.34
2024-01-24T01:22:08.804Z,101324.84
2024-01-24T01:22:21.948Z,101323.91
2024-01-24T01:22:34.853Z,101334.50
2024-01-24T01:22:48.022Z,101326.56
2024-01-24T01:23:01.951Z,101315.94
2024-01-24T01:23:14.826Z,101321.25
2024-01-24T01:23:27.736Z,101324.75
2024-01-24T01:23:41.235Z,101329.22
2024-01-24T01:23:54.096Z,101328.28
2024-01-24T01:24:07.141Z,101322.97
2024-01-24T01:24:20.590Z,101330.06
2024-01-24T01:24:33.555Z,101323.91
2024-01-24T01:24:46.569Z,101328.34
2024-01-24T01:25:00.933Z,101321.25
2024-01-24T01:25:14.168Z,101326.56
2024-01-24T01:25:27.394Z,101328.28
2024-01-24T01:25:40.283Z,101323.91
2024-01-24T01:25:53.818Z,101323.03
2024-01-24T01:26:06.735Z,101321.19
2024-01-24T01:26:20.434Z,101321.19
2024-01-24T01:26:33.597Z,101325.63
2024-01-24T01:26:47.608Z,101325.47
2024-01-24T01:27:00.554Z,101320.34
2024-01-24T01:27:13.756Z,101319.38
2024-01-24T01:27:27.029Z,101316.72
2024-01-24T01:27:40.186Z,101323.75
2024-01-24T01:27:53.294Z,101322.88
2024-01-24T01:28:06.984Z,101326.41
2024-01-24T01:28:19.933Z,101328.19
2024-01-24T01:28:32.776Z,101322.88
2024-01-24T01:28:46.774Z,101325.53
2024-01-24T01:28:59.745Z,101323.75
2024-01-24T01:29:12.753Z,101326.41
2024-01-24T01:29:25.661Z,101317.56
2024-01-24T01:29:38.687Z,101323.75
2024-01-24T01:29:51.546Z,101324.69
2024-01-24T01:30:05.194Z,101322.88
2024-01-24T01:30:18.409Z,101318.47
2024-01-24T01:30:32.082Z,101319.38
2024-01-24T01:30:46.527Z,101317.56
2024-01-24T01:30:59.733Z,101319.38
2024-01-24T01:31:12.603Z,101317.56
2024-01-24T01:31:25.779Z,101318.47
2024-01-24T01:31:38.705Z,101309.63
2024-01-24T01:31:51.534Z,101305.25
2024-01-24T01:32:05.040Z,101312.28
2024-01-24T01:32:31.303Z,101306.09
2024-01-24T01:32:45.585Z,101296.44
2024-01-24T01:32:58.501Z,101299.94
2024-01-24T01:33:11.610Z,101293.78
2024-01-24T01:33:24.751Z,101293.78
2024-01-24T01:33:37.931Z,101300.81
2024-01-24T01:33:51.019Z,101292.84
2024-01-24T01:34:05.497Z,101289.34
2024-01-24T01:34:19.825Z,101284.88
2024-01-24T01:34:34.076Z,101284.88
2024-01-24T01:34:47.243Z,101290.19
2024-01-24T01:35:01.124Z,101290.19
2024-01-24T01:35:15.047Z,101284.88
2024-01-24T01:35:28.136Z,101285.75
2024-01-24T01:35:41.214Z,101284.03
2024-01-24T01:35:57.909Z,101282.22
2024-01-24T01:36:23.375Z,101278.72
2024-01-24T01:36:36.800Z,101279.56
2024-01-24T01:36:49.732Z,101274.28
2024-01-24T01:37:02.737Z,101279.56
2024-01-24T01:37:15.676Z,101274.28
2024-01-24T01:37:28.544Z,101272.47
2024-01-24T01:37:41.799Z,101278.66
2024-01-24T01:37:54.687Z,101276.00
2024-01-24T01:38:07.585Z,101279.50
2024-01-24T01:38:21.744Z,101283.97
2024-01-24T01:38:34.618Z,101283.00
2024-01-24T01:38:47.691Z,101276.84
2024-01-24T01:39:00.606Z,101276.84
2024-01-24T01:39:13.837Z,101283.97
2024-01-24T01:39:26.739Z,101272.34
2024-01-24T01:39:39.689Z,101279.41
2024-01-24T01:39:53.315Z,101278.50
2024-01-24T01:40:08.153Z,101279.41
2024-01-24T01:40:22.468Z,101282.84
2024-01-24T01:40:35.447Z,101275.84
2024-01-24T01:40:48.399Z,101279.41
2024-01-24T01:41:01.261Z,101285.50
2024-01-24T01:41:14.263Z,101281.16
2024-01-24T01:41:27.135Z,101285.59
2024-01-24T01:41:40.413Z,101280.28
2024-01-24T01:41:53.636Z,101283.81
2024-01-24T01:42:06.509Z,101281.16
2024-01-24T01:42:20.469Z,101275.84
2024-01-24T01:42:34.012Z,101275.84
2024-01-24T01:42:47.084Z,101285.50
2024-01-24T01:43:00.025Z,101277.53
2024-01-24T01:43:15.004Z,101282.84
2024-01-24T01:43:27.909Z,101281.06
2024-01-24T01:43:40.778Z,101279.28
2024-01-24T01:43:53.576Z,101278.41
2024-01-24T01:44:07.911Z,101279.28
2024-01-24T01:44:20.852Z,101284.59
2024-01-24T01:44:36.929Z,101282.78
2024-01-24T01:44:50.071Z,101287.22
2024-01-24T01:45:04.888Z,101281.94
2024-01-24T01:45:18.059Z,101284.59
2024-01-24T01:45:31.439Z,101279.28
2024-01-24T01:45:44.590Z,101280.97
2024-01-24T01:46:05.975Z,101275.66
2024-01-24T01:46:19.772Z,101271.25
2024-01-24T01:46:33.253Z,101273.78
2024-01-24T01:46:46.382Z,101280.06
2024-01-24T01:46:59.319Z,101269.44
2024-01-24T01:47:13.436Z,101273.78
2024-01-24T01:47:26.419Z,101268.50
2024-01-24T01:47:40.696Z,101268.50
2024-01-24T01:47:53.744Z,101268.50
2024-01-24T01:48:08.733Z,101266.72
2024-01-24T01:48:22.113Z,101270.22
2024-01-24T01:48:35.981Z,101260.47
2024-01-24T01:48:51.397Z,101253.44
2024-01-24T01:49:05.799Z,101254.31
2024-01-24T01:49:21.260Z,101252.50
2024-01-24T01:49:34.459Z,101256.00
2024-01-24T01:49:48.828Z,101253.34
2024-01-24T01:50:01.917Z,101251.53
2024-01-24T01:50:16.009Z,101249.00
2024-01-24T01:50:29.290Z,101248.91
2024-01-24T01:50:42.294Z,101244.53
2024-01-24T01:50:56.000Z,101248.03
2024-01-24T01:51:09.044Z,101238.28
2024-01-24T01:51:22.156Z,101240.94
2024-01-24T01:51:35.797Z,101228.63
2024-01-24T01:51:50.119Z,101232.22
2024-01-24T01:52:03.131Z,101222.47
2024-01-24T01:52:17.437Z,101225.91
2024-01-24T01:52:31.965Z,101222.47
2024-01-24T01:52:46.036Z,101223.31
2024-01-24T01:53:00.034Z,101224.25
2024-01-24T01:53:13.000Z,101215.41
2024-01-24T01:53:27.056Z,101222.47
2024-01-24T01:53:40.477Z,101218.84
2024-01-24T01:53:53.967Z,101220.66
2024-01-24T01:54:09.018Z,101211.84
2024-01-24T01:54:22.122Z,101210.88
2024-01-24T01:54:35.302Z,101210.88
2024-01-24T01:54:49.359Z,101210.03
2024-01-24T01:55:02.482Z,101214.41
2024-01-24T01:55:17.123Z,101202.09
2024-01-24T01:55:31.073Z,101212.69
2024-01-24T01:55:44.305Z,101202.09
2024-01-24T01:55:58.516Z,101206.53
2024-01-24T01:56:13.686Z,101201.22
2024-01-24T01:56:27.092Z,101201.22
2024-01-24T01:56:40.151Z,101204.66
2024-01-24T01:56:53.305Z,101207.31
2024-01-24T01:57:09.785Z,101204.66
2024-01-24T01:57:24.031Z,101208.25
2024-01-24T01:57:39.380Z,101202.09
2024-01-24T01:57:52.744Z,101203.88
2024-01-24T01:58:05.929Z,101203.03
2024-01-24T01:58:18.832Z,101202.09
2024-01-24T01:58:31.865Z,101201.22
2024-01-24T01:58:45.580Z,101201.22
2024-01-24T01:58:59.275Z,101209.09
2024-01-24T01:59:12.775Z,101201.22
2024-01-24T01:59:28.211Z,101199.34
2024-01-24T01:59:42.084Z,101201.22
2024-01-24T01:59:55.202Z,101196.78
2024-01-24T02:00:11.417Z,101202.09
2024-01-24T02:00:25.149Z,101201.22
2024-01-24T02:00:39.178Z,101204.81
2024-01-24T02:00:52.469Z,101206.53
2024-01-24T02:01:10.477Z,101198.56
2024-01-24T02:01:25.114Z,101199.34
2024-01-24T02:01:40.101Z,101193.09
2024-01-24T02:01:55.148Z,101199.34
2024-01-24T02:02:08.533Z,101202.00
2024-01-24T02:02:21.409Z,101202.84
2024-01-24T02:02:34.354Z,101195.94
2024-01-24T02:02:47.705Z,101202.00
2024-01-24T02:03:01.769Z,101194.19
2024-01-24T02:03:14.913Z,101193.34
2024-01-24T02:03:28.928Z,101195.94
2024-01-24T02:03:43.764Z,101185.31
2024-01-24T02:03:56.826Z,101185.31
2024-01-24T02:04:09.832Z,101185.31
2024-01-24T02:04:24.783Z,101182.66
2024-01-24T02:04:38.014Z,101190.63
2024-01-24T02:04:50.986Z,101187.13
2024-01-24T02:05:04.770Z,101183.56
2024-01-24T02:05:18.160Z,101180.06
2024-01-24T02:05:31.666Z,101177.41
2024-01-24T02:05:47.324Z,101172.13
2024-01-24T02:06:01.372Z,101168.53
2024-01-24T02:06:14.517Z,101172.97
2024-01-24T02:06:27.968Z,101166.81
2024-01-24T02:06:41.294Z,101166.81
2024-01-24T02:06:56.823Z,101172.97
2024-01-24T02:07:09.901Z,101168.63
2024-01-24T02:07:24.045Z,101173.06
2024-01-24T02:07:37.074Z,101166.81
2024-01-24T02:07:50.182Z,101166.81
2024-01-24T02:08:03.800Z,101171.25
2024-01-24T02:08:16.863Z,101167.75
2024-01-24T02:08:29.900Z,101171.25
2024-01-24T02:08:44.311Z,101159.81
2024-01-24T02:08:57.162Z,101154.50
2024-01-24T02:09:11.731Z,101165.09
2024-01-24T02:09:25.079Z,101171.25
2024-01-24T02:09:38.198Z,101175.63
2024-01-24T02:09:51.363Z,101175.72
2024-01-24T02:10:05.124Z,101175.72
2024-01-24T02:10:18.261Z,101170.41
2024-01-24T02:10:31.518Z,101167.75
2024-01-24T02:10:45.597Z,101165.00
2024-01-24T02:10:59.439Z,101165.09
2024-01-24T02:11:13.451Z,101166.88
2024-01-24T02:11:26.368Z,101165.97
2024-01-24T02:11:40.326Z,101167.66
2024-01-24T02:11:53.296Z,101172.97
2024-01-24T02:12:06.594Z,101166.81
2024-01-24T02:12:19.999Z,101170.31
2024-01-24T02:12:32.949Z,101165.00
2024-01-24T02:12:45.909Z,101168.53
2024-01-24T02:13:00.503Z,101167.66
2024-01-24T02:13:13.447Z,101158.84
2024-01-24T02:13:29.281Z,101147.31
2024-01-24T02:13:42.565Z,101158.78
2024-01-24T02:14:00.189Z,101156.13
2024-01-24T02:14:13.646Z,101150.88
2024-01-24T02:14:26.673Z,101147.31
2024-01-24T02:14:40.563Z,101146.44
2024-01-24T02:14:53.407Z,101139.44
2024-01-24T02:15:07.545Z,101143.63
2024-01-24T02:15:21.060Z,101143.69
2024-01-24T02:15:34.063Z,101140.09
2024-01-24T02:15:47.027Z,101135.66
2024-01-24T02:16:00.132Z,101139.25
2024-01-24T02:16:18.162Z,101135.66
2024-01-24T02:16:34.308Z,101132.25
2024-01-24T02:16:47.286Z,101136.69
2024-01-24T02:17:00.581Z,101136.69
2024-01-24T02:17:13.559Z,101134.91
2024-01-24T02:17:26.649Z,101130.50
2024-01-24T02:17:39.679Z,101138.47
2024-01-24T02:17:52.595Z,101130.50
2024-01-24T02:18:07.184Z,101130.50
2024-01-24T02:18:20.171Z,101129.66
2024-01-24T02:18:34.190Z,101122.53
2024-01-24T02:18:47.260Z,101130.50
2024-01-24T02:19:00.391Z,101123.44
2024-01-24T02:19:13.443Z,101113.75
2024-01-24T02:19:28.816Z,101115.53
2024-01-24T02:19:42.029Z,101114.59
2024-01-24T02:19:54.982Z,101112.88
2024-01-24T02:20:11.193Z,101119.91
2024-01-24T02:20:25.394Z,101108.34
2024-01-24T02:20:40.182Z,101103.13
2024-01-24T02:20:53.578Z,101100.47
2024-01-24T02:21:06.701Z,101092.50
2024-01-24T02:21:19.729Z,101098.66
2024-01-24T02:21:32.693Z,101098.66
2024-01-24T02:21:45.663Z,101088.94
2024-01-24T02:21:58.793Z,101093.34
2024-01-24T02:22:11.937Z,101094.25
2024-01-24T02:22:24.856Z,101092.50
2024-01-24T02:22:38.900Z,101088.06
2024-01-24T02:22:51.932Z,101086.34
2024-01-24T02:23:05.189Z,101083.69
2024-01-24T02:23:19.631Z,101088.16
2024-01-24T02:23:33.001Z,101083.69
2024-01-24T02:23:47.565Z,101083.69
2024-01-24T02:24:01.554Z,101073.09
2024-01-24T02:24:15.930Z,101078.41
2024-01-24T02:24:29.684Z,101069.59
2024-01-24T02:24:43.882Z,101071.28
2024-01-24T02:24:56.938Z,101082.75
2024-01-24T02:25:10.073Z,101070.34
2024-01-24T02:25:22.997Z,101069.47
2024-01-24T02:25:35.918Z,101065.91
2024-01-24T02:25:50.717Z,101062.41
2024-01-24T02:26:05.512Z,101062.41
2024-01-24T02:26:18.463Z,101064.16
2024-01-24T02:26:31.371Z,101065.06
2024-01-24T02:26:45.611Z,101062.41
2024-01-24T02:26:58.609Z,101067.72
2024-01-24T02:27:11.879Z,101061.53
2024-01-24T02:27:24.911Z,101059.75
2024-01-24T02:27:37.831Z,101057.16
2024-01-24T02:27:51.213Z,101058.88
2024-01-24T02:28:04.635Z,101055.38
2024-01-24T02:28:17.836Z,101056.22
2024-01-24T02:28:30.740Z,101051.84
2024-01-24T02:28:44.841Z,101056.22
2024-01-24T02:28:57.763Z,101061.53
2024-01-24T02:29:10.678Z,101059.75
2024-01-24T02:29:23.597Z,101052.63
2024-01-24T02:29:36.491Z,101056.22
2024-01-24T02:29:49.641Z,101055.38
2024-01-24T02:30:02.609Z,101056.22
2024-01-24T02:30:15.745Z,101055.38
2024-01-24T02:30:28.853Z,101050.91
2024-01-24T02:30:41.891Z,101056.22
2024-01-24T02:30:55.893Z,101057.94
2024-01-24T02:31:10.489Z,101056.22
2024-01-24T02:31:23.737Z,101055.28
2024-01-24T02:31:36.656Z,101057.94
2024-01-24T02:31:49.591Z,101051.78
2024-01-24T02:32:02.742Z,101053.56
2024-01-24T02:32:15.633Z,101049.97
2024-01-24T02:32:28.615Z,101049.13
2024-01-24T02:32:42.058Z,101054.44
2024-01-24T02:32:57.761Z,101051.78
2024-01-24T02:33:10.912Z,101046.47
2024-01-24T02:33:23.944Z,101045.59
2024-01-24T02:33:36.987Z,101043.81
2024-01-24T02:33:50.022Z,101052.63
2024-01-24T02:34:03.129Z,101052.53
2024-01-24T02:34:16.148Z,101041.84
2024-01-24T02:34:29.455Z,101046.22
2024-01-24T02:34:44.539Z,101048.94
2024-01-24T02:34:57.821Z,101050.75